Estación de La capilla

Ultimos registro cada 15 minutos 76
Estación Fecha / Hora Temperatura Humedad Lluvia Velocidad Dirección Radiación Presion
76 La capilla 02-09-2026 18:45 10,9 70 0 0,4 360 0 1094,2
75 La capilla 02-09-2026 18:30 11,3 71 0 0,4 360 0 1093,9
74 La capilla 02-09-2026 18:15 11,9 66 0 0 360 5 1093,6
73 La capilla 02-09-2026 18:00 12,6 67 0 0 360 12 1093,4
72 La capilla 02-09-2026 17:45 13,1 65 0 0,4 360 18 1093
71 La capilla 02-09-2026 17:30 13,7 63 0 0 360 19 1092,7
70 La capilla 02-09-2026 17:15 14,3 61 0 0 129 33 1092,2
69 La capilla 02-09-2026 17:00 15,1 58 0 0 130 26 1092,2
68 La capilla 02-09-2026 16:45 15,6 57 0 0 129 135 1092
67 La capilla 02-09-2026 16:30 16,2 56 0 0 137 37 1091,8
66 La capilla 02-09-2026 16:15 16,6 58 0 0 138 338 1091,6
65 La capilla 02-09-2026 16:00 16,8 59 0 0 143 346 1091,4
64 La capilla 02-09-2026 15:45 16,9 59 0 0 169 436 1091
63 La capilla 02-09-2026 15:30 16,7 60 0 0 165 476 1091
62 La capilla 02-09-2026 15:15 16,1 66 0 0,4 175 531 1090,9
61 La capilla 02-09-2026 15:00 15 68 0 0 360 626 1090,9
60 La capilla 02-09-2026 14:45 15 69 0 0 194 95 1090,8
59 La capilla 02-09-2026 14:30 15,4 66 0 1,3 181 137 1090,7
58 La capilla 02-09-2026 14:15 15,1 71 0 0,9 360 761 1090,9
57 La capilla 02-09-2026 14:00 14,5 74 0 0,4 360 715 1090,9
56 La capilla 02-09-2026 13:45 15 70 0 0,4 144 79 1091,1
55 La capilla 02-09-2026 13:30 15 74 0 0,4 360 761 1091,4
54 La capilla 02-09-2026 13:15 16,1 71 0 0 125 76 1091,6
53 La capilla 02-09-2026 13:00 15,4 75 0 0 125 510 1091,6
52 La capilla 02-09-2026 12:45 15,4 75 0 0,4 123 343 1091,7
51 La capilla 02-09-2026 12:30 15,1 79 0 0 123 847 1091,8
50 La capilla 02-09-2026 12:15 14,3 84 0 0 121 802 1091,8
49 La capilla 02-09-2026 12:00 13,6 89 0 0,4 360 687 1091,9
48 La capilla 02-09-2026 11:45 12,8 91 0 0 117 605 1091,9
47 La capilla 02-09-2026 11:30 12,7 91 0 0 117 165 1092
46 La capilla 02-09-2026 11:15 12,7 93 0 0 117 250 1092,3
45 La capilla 02-09-2026 11:00 12,3 93 0 0 117 671 1092,1
44 La capilla 02-09-2026 10:45 12 95 0 0 117 257 1092,3
43 La capilla 02-09-2026 10:30 11,7 96 0 0 117 241 1092,2
42 La capilla 02-09-2026 10:15 11,4 98 0 0 117 301 1092,3
41 La capilla 02-09-2026 10:00 10,9 97 0 0 360 104 1091,8
40 La capilla 02-09-2026 09:45 10,8 98 0 0 119 141 1091,8
39 La capilla 02-09-2026 09:30 10,6 98 0 0 360 114 1092
38 La capilla 02-09-2026 09:15 10,4 98 0 0 360 63 1091,7
37 La capilla 02-09-2026 09:00 10,3 98 0 0 360 53 1091,6
36 La capilla 02-09-2026 08:45 10,2 98 0 0 119 40 1092
35 La capilla 02-09-2026 08:30 10,1 98 0 0 117 30 1091,5
34 La capilla 02-09-2026 08:15 9,9 97 0,2 0 360 26 1091,2
33 La capilla 02-09-2026 08:00 9,9 97 0,2 0 360 11 1091,4
32 La capilla 02-09-2026 07:45 9,8 97 0 0 360 9 1091,2
31 La capilla 02-09-2026 07:30 9,8 97 0 0 360 0 1091,2
30 La capilla 02-09-2026 07:15 9,7 97 0 0 360 0 1090,6
29 La capilla 02-09-2026 07:00 9,7 97 0 0 360 0 1090,8
28 La capilla 02-09-2026 06:45 9,7 97 0 0 360 0 1090,9
27 La capilla 02-09-2026 06:30 9,7 97 0 0 360 0 1090,6
26 La capilla 02-09-2026 06:15 9,8 96 0 0 360 0 1090,3
25 La capilla 02-09-2026 06:00 9,9 97 0 0 360 0 1090,1
24 La capilla 02-09-2026 05:45 10 96 0 0 360 0 1090
23 La capilla 02-09-2026 05:30 10 96 0,2 0 360 0 1090,1
22 La capilla 02-09-2026 05:15 10,1 96 0 0 360 0 1089,9
21 La capilla 02-09-2026 05:00 10,2 96 0 0,4 360 0 1089,9
20 La capilla 02-09-2026 04:45 10,2 96 0 0 360 0 1090,3
19 La capilla 02-09-2026 04:30 10,3 96 0,2 0 360 0 1090,5
18 La capilla 02-09-2026 04:15 10,4 95 0 0 360 0 1090
17 La capilla 02-09-2026 04:00 10,4 95 1 0 360 0 1090,3
16 La capilla 02-09-2026 03:45 10,4 95 0,4 0 360 0 1090,5
15 La capilla 02-09-2026 03:30 10,5 94 0,2 0 360 0 1090,6
14 La capilla 02-09-2026 03:15 10,6 94 0 0 360 0 1090,3
13 La capilla 02-09-2026 03:00 10,6 94 0 0 360 0 1090,5
12 La capilla 02-09-2026 02:45 10,6 93 0 0 360 0 1090,6
11 La capilla 02-09-2026 02:30 10,6 93 0 0 360 0 1090,7
10 La capilla 02-09-2026 02:15 10,5 93 0 0 360 0 1090,9
9 La capilla 02-09-2026 02:00 10,4 93 0 0 360 0 1091,2
8 La capilla 02-09-2026 01:45 10,4 93 0 0 360 0 1091,3
7 La capilla 02-09-2026 01:30 10,4 92 0 0 360 0 1091,2
6 La capilla 02-09-2026 01:15 10,6 91 0 0 360 0 1091,2
5 La capilla 02-09-2026 01:00 10,8 91 0 0 360 0 1091,2
4 La capilla 02-09-2026 00:45 10,8 91 0 0 360 0 1091,5
3 La capilla 02-09-2026 00:30 10,9 91 0 0 360 0 1092,1
2 La capilla 02-09-2026 00:15 10,9 90 0 0 360 0 1092,2
1 La capilla 02-09-2026 00:00 11 90 0 0 360 0 1092,6